sensor_id;sensor_type;location;lat;lon;timestamp;noise_LAeq;noise_LA_min;noise_LA_max;noise_LA01;noise_LA95
77729;Laerm;68312;53.502;10.030;2023-04-05T00:01:41;42.93;39.01;46.54;;
77729;Laerm;68312;53.502;10.030;2023-04-05T00:04:07;41.89;38.28;46.00;;
77729;Laerm;68312;53.502;10.030;2023-04-05T00:06:33;43.18;38.26;49.92;;
77729;Laerm;68312;53.502;10.030;2023-04-05T00:09:01;42.25;37.66;46.15;;
77729;Laerm;68312;53.502;10.030;2023-04-05T00:11:31;42.66;38.29;58.10;;
77729;Laerm;68312;53.502;10.030;2023-04-05T00:14:02;44.26;40.47;50.30;;
77729;Laerm;68312;53.502;10.030;2023-04-05T00:16:28;45.47;40.31;52.01;;
77729;Laerm;68312;53.502;10.030;2023-04-05T00:18:56;46.82;42.79;51.21;;
77729;Laerm;68312;53.502;10.030;2023-04-05T00:21:23;45.86;42.50;49.45;;
77729;Laerm;68312;53.502;10.030;2023-04-05T00:23:53;45.44;41.40;51.54;;
77729;Laerm;68312;53.502;10.030;2023-04-05T00:26:20;44.58;40.05;49.79;;
77729;Laerm;68312;53.502;10.030;2023-04-05T00:28:47;43.57;39.97;48.57;;
77729;Laerm;68312;53.502;10.030;2023-04-05T00:31:14;44.53;40.42;51.08;;
77729;Laerm;68312;53.502;10.030;2023-04-05T00:33:39;45.99;40.67;49.59;;
77729;Laerm;68312;53.502;10.030;2023-04-05T00:36:17;46.15;39.17;51.09;;
77729;Laerm;68312;53.502;10.030;2023-04-05T00:38:46;42.80;38.61;47.55;;
77729;Laerm;68312;53.502;10.030;2023-04-05T00:41:13;46.61;42.37;51.11;;
77729;Laerm;68312;53.502;10.030;2023-04-05T00:43:39;45.78;41.57;53.41;;
77729;Laerm;68312;53.502;10.030;2023-04-05T00:46:06;46.55;42.51;51.01;;
77729;Laerm;68312;53.502;10.030;2023-04-05T00:48:34;46.88;43.12;50.75;;
77729;Laerm;68312;53.502;10.030;2023-04-05T00:51:00;45.96;41.55;57.83;;
77729;Laerm;68312;53.502;10.030;2023-04-05T00:53:26;45.29;41.09;48.99;;
77729;Laerm;68312;53.502;10.030;2023-04-05T00:55:53;44.20;39.91;51.57;;
77729;Laerm;68312;53.502;10.030;2023-04-05T00:58:20;44.00;40.15;50.54;;
77729;Laerm;68312;53.502;10.030;2023-04-05T01:01:10;44.73;40.45;49.72;;
77729;Laerm;68312;53.502;10.030;2023-04-05T01:03:44;45.35;41.23;51.71;;
77729;Laerm;68312;53.502;10.030;2023-04-05T01:06:55;45.28;40.95;49.69;;
77729;Laerm;68312;53.502;10.030;2023-04-05T01:09:59;47.50;42.42;53.39;;
77729;Laerm;68312;53.502;10.030;2023-04-05T01:12:31;44.41;38.49;49.49;;
77729;Laerm;68312;53.502;10.030;2023-04-05T01:14:59;45.19;40.38;52.02;;
77729;Laerm;68312;53.502;10.030;2023-04-05T01:17:29;48.00;42.28;58.07;;
77729;Laerm;68312;53.502;10.030;2023-04-05T01:20:06;48.65;42.58;53.34;;
77729;Laerm;68312;53.502;10.030;2023-04-05T01:23:11;51.34;44.91;56.37;;
77729;Laerm;68312;53.502;10.030;2023-04-05T01:26:30;48.08;44.31;51.91;;
77729;Laerm;68312;53.502;10.030;2023-04-05T01:30:03;49.95;45.92;55.24;;
77729;Laerm;68312;53.502;10.030;2023-04-05T01:32:57;48.94;44.22;53.30;;
77729;Laerm;68312;53.502;10.030;2023-04-05T01:35:50;47.57;42.96;53.41;;
77729;Laerm;68312;53.502;10.030;2023-04-05T01:38:22;47.42;42.74;52.35;;
77729;Laerm;68312;53.502;10.030;2023-04-05T01:40:51;46.98;42.97;50.73;;
77729;Laerm;68312;53.502;10.030;2023-04-05T01:43:17;44.54;39.02;54.51;;
77729;Laerm;68312;53.502;10.030;2023-04-05T01:45:45;46.01;38.16;61.61;;
77729;Laerm;68312;53.502;10.030;2023-04-05T01:48:12;47.48;40.52;62.08;;
77729;Laerm;68312;53.502;10.030;2023-04-05T01:50:38;45.59;41.02;51.27;;
77729;Laerm;68312;53.502;10.030;2023-04-05T01:53:07;44.74;40.67;51.23;;
77729;Laerm;68312;53.502;10.030;2023-04-05T01:55:32;48.19;40.88;59.26;;
77729;Laerm;68312;53.502;10.030;2023-04-05T01:57:58;52.71;48.54;60.40;;
77729;Laerm;68312;53.502;10.030;2023-04-05T02:00:24;50.44;43.63;60.20;;
77729;Laerm;68312;53.502;10.030;2023-04-05T02:02:50;48.26;44.17;55.14;;
77729;Laerm;68312;53.502;10.030;2023-04-05T02:05:15;48.22;43.19;54.16;;
77729;Laerm;68312;53.502;10.030;2023-04-05T02:07:41;46.49;42.51;51.33;;
77729;Laerm;68312;53.502;10.030;2023-04-05T02:10:07;47.09;42.16;52.56;;
77729;Laerm;68312;53.502;10.030;2023-04-05T02:12:33;47.13;43.46;50.70;;
77729;Laerm;68312;53.502;10.030;2023-04-05T02:14:59;46.07;42.69;49.85;;
77729;Laerm;68312;53.502;10.030;2023-04-05T02:17:25;45.59;41.17;51.14;;
77729;Laerm;68312;53.502;10.030;2023-04-05T02:20:08;45.87;42.16;52.38;;
77729;Laerm;68312;53.502;10.030;2023-04-05T02:22:37;48.01;43.58;53.16;;
77729;Laerm;68312;53.502;10.030;2023-04-05T02:25:06;46.46;42.86;51.78;;
77729;Laerm;68312;53.502;10.030;2023-04-05T02:27:35;44.86;40.22;50.98;;
77729;Laerm;68312;53.502;10.030;2023-04-05T02:30:01;45.65;41.12;49.74;;
77729;Laerm;68312;53.502;10.030;2023-04-05T02:32:27;44.99;40.13;49.82;;
77729;Laerm;68312;53.502;10.030;2023-04-05T02:34:52;45.70;41.70;50.81;;
77729;Laerm;68312;53.502;10.030;2023-04-05T02:37:21;46.56;42.75;50.67;;
77729;Laerm;68312;53.502;10.030;2023-04-05T02:39:47;47.43;42.06;52.04;;
77729;Laerm;68312;53.502;10.030;2023-04-05T02:42:12;46.41;42.80;51.31;;
77729;Laerm;68312;53.502;10.030;2023-04-05T02:44:38;46.70;42.42;52.12;;
77729;Laerm;68312;53.502;10.030;2023-04-05T02:47:03;46.19;42.71;52.97;;
77729;Laerm;68312;53.502;10.030;2023-04-05T02:49:29;49.48;43.49;56.24;;
77729;Laerm;68312;53.502;10.030;2023-04-05T02:51:55;52.95;49.50;58.49;;
77729;Laerm;68312;53.502;10.030;2023-04-05T02:54:21;52.42;49.06;55.24;;
77729;Laerm;68312;53.502;10.030;2023-04-05T02:56:46;51.91;49.07;55.36;;
77729;Laerm;68312;53.502;10.030;2023-04-05T02:59:15;52.27;49.34;58.52;;
77729;Laerm;68312;53.502;10.030;2023-04-05T03:01:42;51.40;46.71;55.28;;
77729;Laerm;68312;53.502;10.030;2023-04-05T03:04:09;47.34;44.16;52.44;;
77729;Laerm;68312;53.502;10.030;2023-04-05T03:06:38;47.11;44.12;50.08;;
77729;Laerm;68312;53.502;10.030;2023-04-05T03:09:04;48.46;45.31;51.54;;
77729;Laerm;68312;53.502;10.030;2023-04-05T03:11:30;52.00;45.32;66.51;;
77729;Laerm;68312;53.502;10.030;2023-04-05T03:13:56;52.03;47.91;59.11;;
77729;Laerm;68312;53.502;10.030;2023-04-05T03:16:21;50.88;47.51;60.81;;
77729;Laerm;68312;53.502;10.030;2023-04-05T03:18:48;50.47;47.41;54.83;;
77729;Laerm;68312;53.502;10.030;2023-04-05T03:21:14;50.43;47.17;57.80;;
77729;Laerm;68312;53.502;10.030;2023-04-05T03:23:42;49.77;46.63;53.35;;
77729;Laerm;68312;53.502;10.030;2023-04-05T03:26:11;50.12;46.75;53.01;;
77729;Laerm;68312;53.502;10.030;2023-04-05T03:28:39;50.38;46.99;57.86;;
77729;Laerm;68312;53.502;10.030;2023-04-05T03:31:10;50.17;46.93;53.21;;
77729;Laerm;68312;53.502;10.030;2023-04-05T03:33:36;50.23;47.48;53.14;;
77729;Laerm;68312;53.502;10.030;2023-04-05T03:36:03;50.34;46.75;54.88;;
77729;Laerm;68312;53.502;10.030;2023-04-05T03:38:28;50.05;46.15;57.30;;
77729;Laerm;68312;53.502;10.030;2023-04-05T03:40:57;49.76;46.53;52.47;;
77729;Laerm;68312;53.502;10.030;2023-04-05T03:43:22;50.00;47.17;55.48;;
77729;Laerm;68312;53.502;10.030;2023-04-05T03:45:48;50.95;46.78;61.18;;
77729;Laerm;68312;53.502;10.030;2023-04-05T03:48:14;51.79;47.76;67.49;;
77729;Laerm;68312;53.502;10.030;2023-04-05T03:50:46;51.26;48.23;56.43;;
77729;Laerm;68312;53.502;10.030;2023-04-05T03:53:11;51.12;47.98;53.84;;
77729;Laerm;68312;53.502;10.030;2023-04-05T03:55:37;50.92;47.75;54.84;;
77729;Laerm;68312;53.502;10.030;2023-04-05T03:58:04;50.94;48.11;53.54;;
77729;Laerm;68312;53.502;10.030;2023-04-05T04:00:30;51.20;48.60;59.88;;
77729;Laerm;68312;53.502;10.030;2023-04-05T04:02:55;51.68;47.82;60.40;;
77729;Laerm;68312;53.502;10.030;2023-04-05T04:05:21;51.16;47.79;59.35;;
77729;Laerm;68312;53.502;10.030;2023-04-05T04:07:47;51.24;47.78;58.22;;
77729;Laerm;68312;53.502;10.030;2023-04-05T04:10:15;51.13;47.48;57.16;;
77729;Laerm;68312;53.502;10.030;2023-04-05T04:12:44;51.20;48.59;55.51;;
77729;Laerm;68312;53.502;10.030;2023-04-05T04:15:11;51.50;48.23;58.99;;
77729;Laerm;68312;53.502;10.030;2023-04-05T04:17:37;51.39;48.51;55.56;;
77729;Laerm;68312;53.502;10.030;2023-04-05T04:20:04;51.05;48.01;58.54;;
77729;Laerm;68312;53.502;10.030;2023-04-05T04:22:37;50.62;47.23;59.50;;
77729;Laerm;68312;53.502;10.030;2023-04-05T04:25:10;51.22;47.17;62.94;;
77729;Laerm;68312;53.502;10.030;2023-04-05T04:27:41;49.42;46.52;52.88;;
77729;Laerm;68312;53.502;10.030;2023-04-05T04:30:12;49.73;46.79;55.62;;
77729;Laerm;68312;53.502;10.030;2023-04-05T04:32:41;49.88;46.88;54.48;;
77729;Laerm;68312;53.502;10.030;2023-04-05T04:35:20;58.33;48.32;78.04;;
77729;Laerm;68312;53.502;10.030;2023-04-05T04:38:02;60.93;48.51;77.45;;
77729;Laerm;68312;53.502;10.030;2023-04-05T04:40:30;52.54;48.53;70.10;;
77729;Laerm;68312;53.502;10.030;2023-04-05T04:43:11;56.36;48.31;74.39;;
77729;Laerm;68312;53.502;10.030;2023-04-05T04:45:48;54.82;48.52;67.60;;
77729;Laerm;68312;53.502;10.030;2023-04-05T04:48:15;51.70;48.19;55.60;;
77729;Laerm;68312;53.502;10.030;2023-04-05T04:50:46;52.77;48.88;63.18;;
77729;Laerm;68312;53.502;10.030;2023-04-05T04:53:13;51.79;48.18;58.62;;
77729;Laerm;68312;53.502;10.030;2023-04-05T04:55:41;51.42;47.72;60.83;;
77729;Laerm;68312;53.502;10.030;2023-04-05T04:58:08;51.20;47.72;56.68;;
77729;Laerm;68312;53.502;10.030;2023-04-05T05:00:38;54.23;47.23;71.57;;
77729;Laerm;68312;53.502;10.030;2023-04-05T05:03:05;51.92;48.24;63.14;;
77729;Laerm;68312;53.502;10.030;2023-04-05T05:05:33;51.05;47.65;67.05;;
77729;Laerm;68312;53.502;10.030;2023-04-05T05:07:58;53.17;47.81;68.81;;
77729;Laerm;68312;53.502;10.030;2023-04-05T05:10:25;50.65;47.73;57.25;;
77729;Laerm;68312;53.502;10.030;2023-04-05T05:12:50;54.64;47.96;74.38;;
77729;Laerm;68312;53.502;10.030;2023-04-05T05:15:16;50.31;47.43;57.89;;
77729;Laerm;68312;53.502;10.030;2023-04-05T05:17:42;54.17;46.99;70.29;;
77729;Laerm;68312;53.502;10.030;2023-04-05T05:20:09;50.82;46.66;57.98;;
77729;Laerm;68312;53.502;10.030;2023-04-05T05:22:39;51.23;47.66;59.92;;
77729;Laerm;68312;53.502;10.030;2023-04-05T05:25:06;53.33;47.15;70.18;;
77729;Laerm;68312;53.502;10.030;2023-04-05T05:27:33;49.68;45.87;64.55;;
77729;Laerm;68312;53.502;10.030;2023-04-05T05:29:59;48.81;45.64;53.10;;
77729;Laerm;68312;53.502;10.030;2023-04-05T05:32:24;49.59;45.73;59.11;;
77729;Laerm;68312;53.502;10.030;2023-04-05T05:34:50;49.40;45.86;60.81;;
77729;Laerm;68312;53.502;10.030;2023-04-05T05:37:16;50.24;46.09;64.70;;
77729;Laerm;68312;53.502;10.030;2023-04-05T05:39:42;51.42;45.99;65.66;;
77729;Laerm;68312;53.502;10.030;2023-04-05T05:42:10;49.67;46.04;59.67;;
77729;Laerm;68312;53.502;10.030;2023-04-05T05:44:36;49.63;46.01;61.14;;
77729;Laerm;68312;53.502;10.030;2023-04-05T05:47:02;50.21;45.62;61.59;;
77729;Laerm;68312;53.502;10.030;2023-04-05T05:49:29;50.25;46.64;59.70;;
77729;Laerm;68312;53.502;10.030;2023-04-05T05:51:55;51.20;47.72;61.39;;
77729;Laerm;68312;53.502;10.030;2023-04-05T05:54:21;52.03;47.63;61.94;;
77729;Laerm;68312;53.502;10.030;2023-04-05T05:56:47;52.82;48.69;66.12;;
77729;Laerm;68312;53.502;10.030;2023-04-05T05:59:12;52.56;48.29;72.25;;
77729;Laerm;68312;53.502;10.030;2023-04-05T06:01:38;51.55;48.00;64.18;;
77729;Laerm;68312;53.502;10.030;2023-04-05T06:04:08;52.28;48.36;57.97;;
77729;Laerm;68312;53.502;10.030;2023-04-05T06:06:33;52.41;49.04;61.06;;
77729;Laerm;68312;53.502;10.030;2023-04-05T06:09:00;51.47;47.79;57.22;;
77729;Laerm;68312;53.502;10.030;2023-04-05T06:11:25;52.40;49.18;59.83;;
77729;Laerm;68312;53.502;10.030;2023-04-05T06:13:51;53.03;49.28;59.24;;
77729;Laerm;68312;53.502;10.030;2023-04-05T06:16:20;53.16;49.64;59.45;;
77729;Laerm;68312;53.502;10.030;2023-04-05T06:18:46;53.74;49.75;57.50;;
77729;Laerm;68312;53.502;10.030;2023-04-05T06:21:13;58.65;50.36;66.60;;
77729;Laerm;68312;53.502;10.030;2023-04-05T06:23:42;57.44;52.17;71.76;;
77729;Laerm;68312;53.502;10.030;2023-04-05T06:26:08;55.40;51.09;60.52;;
77729;Laerm;68312;53.502;10.030;2023-04-05T06:28:39;55.48;51.26;63.61;;
77729;Laerm;68312;53.502;10.030;2023-04-05T06:31:05;55.42;51.39;59.03;;
77729;Laerm;68312;53.502;10.030;2023-04-05T06:33:30;56.27;51.17;67.08;;
77729;Laerm;68312;53.502;10.030;2023-04-05T06:35:56;55.96;51.81;65.18;;
77729;Laerm;68312;53.502;10.030;2023-04-05T06:38:21;56.38;51.14;69.73;;
77729;Laerm;68312;53.502;10.030;2023-04-05T06:40:47;55.27;50.61;64.31;;
77729;Laerm;68312;53.502;10.030;2023-04-05T06:43:12;55.26;49.35;62.45;;
77729;Laerm;68312;53.502;10.030;2023-04-05T06:45:38;55.11;50.62;60.01;;
77729;Laerm;68312;53.502;10.030;2023-04-05T06:48:04;54.47;50.76;58.60;;
77729;Laerm;68312;53.502;10.030;2023-04-05T06:50:29;57.05;50.21;72.51;;
77729;Laerm;68312;53.502;10.030;2023-04-05T06:52:55;52.28;47.73;61.72;;
77729;Laerm;68312;53.502;10.030;2023-04-05T06:55:21;54.02;47.96;67.69;;
77729;Laerm;68312;53.502;10.030;2023-04-05T06:57:46;53.17;47.85;61.38;;
77729;Laerm;68312;53.502;10.030;2023-04-05T07:00:13;50.81;46.15;57.63;;
77729;Laerm;68312;53.502;10.030;2023-04-05T07:02:41;50.29;45.12;64.34;;
77729;Laerm;68312;53.502;10.030;2023-04-05T07:05:07;54.15;44.84;83.18;;
77729;Laerm;68312;53.502;10.030;2023-04-05T07:07:38;48.17;43.45;56.98;;
77729;Laerm;68312;53.502;10.030;2023-04-05T07:10:05;46.91;42.62;53.63;;
77729;Laerm;68312;53.502;10.030;2023-04-05T07:12:31;46.82;41.97;56.29;;
77729;Laerm;68312;53.502;10.030;2023-04-05T07:14:58;47.33;41.12;57.07;;
77729;Laerm;68312;53.502;10.030;2023-04-05T07:17:24;47.99;42.09;61.34;;
77729;Laerm;68312;53.502;10.030;2023-04-05T07:19:50;46.16;42.63;60.99;;
77729;Laerm;68312;53.502;10.030;2023-04-05T07:22:15;46.47;42.07;55.36;;
77729;Laerm;68312;53.502;10.030;2023-04-05T07:24:43;47.45;41.51;63.77;;
77729;Laerm;68312;53.502;10.030;2023-04-05T07:27:08;45.06;40.33;59.37;;
77729;Laerm;68312;53.502;10.030;2023-04-05T07:29:34;44.67;40.26;57.72;;
77729;Laerm;68312;53.502;10.030;2023-04-05T07:32:02;45.04;40.14;59.66;;
77729;Laerm;68312;53.502;10.030;2023-04-05T07:34:28;48.78;41.45;62.68;;
77729;Laerm;68312;53.502;10.030;2023-04-05T07:36:53;49.83;41.90;63.57;;
77729;Laerm;68312;53.502;10.030;2023-04-05T07:39:19;46.99;41.22;59.59;;
77729;Laerm;68312;53.502;10.030;2023-04-05T07:41:45;47.55;41.82;64.48;;
77729;Laerm;68312;53.502;10.030;2023-04-05T07:44:11;45.76;41.57;56.73;;
77729;Laerm;68312;53.502;10.030;2023-04-05T07:46:36;51.47;40.92;68.67;;
77729;Laerm;68312;53.502;10.030;2023-04-05T07:49:03;44.36;39.55;52.68;;
77729;Laerm;68312;53.502;10.030;2023-04-05T07:51:28;43.85;39.80;49.49;;
77729;Laerm;68312;53.502;10.030;2023-04-05T07:53:55;41.64;38.18;46.71;;
77729;Laerm;68312;53.502;10.030;2023-04-05T07:56:21;52.35;38.25;66.45;;
77729;Laerm;68312;53.502;10.030;2023-04-05T07:58:47;41.14;37.89;53.46;;
77729;Laerm;68312;53.502;10.030;2023-04-05T08:01:14;53.19;37.10;77.87;;
77729;Laerm;68312;53.502;10.030;2023-04-05T08:03:40;47.18;36.35;66.28;;
77729;Laerm;68312;53.502;10.030;2023-04-05T08:06:14;41.42;35.68;52.69;;
77729;Laerm;68312;53.502;10.030;2023-04-05T08:08:44;48.72;36.42;66.27;;
77729;Laerm;68312;53.502;10.030;2023-04-05T08:11:11;50.99;36.87;71.47;;
77729;Laerm;68312;53.502;10.030;2023-04-05T08:13:38;44.42;36.91;60.89;;
77729;Laerm;68312;53.502;10.030;2023-04-05T08:16:07;50.10;36.69;70.94;;
77729;Laerm;68312;53.502;10.030;2023-04-05T08:18:33;50.23;37.07;78.66;;
77729;Laerm;68312;53.502;10.030;2023-04-05T08:20:59;41.58;36.40;51.67;;
77729;Laerm;68312;53.502;10.030;2023-04-05T08:23:25;48.70;36.95;69.08;;
77729;Laerm;68312;53.502;10.030;2023-04-05T08:25:52;40.74;35.26;53.66;;
77729;Laerm;68312;53.502;10.030;2023-04-05T08:28:18;49.51;35.52;66.78;;
77729;Laerm;68312;53.502;10.030;2023-04-05T08:30:44;40.86;35.44;50.55;;
77729;Laerm;68312;53.502;10.030;2023-04-05T08:33:11;51.29;35.74;69.49;;
77729;Laerm;68312;53.502;10.030;2023-04-05T08:35:38;42.44;35.62;59.07;;
77729;Laerm;68312;53.502;10.030;2023-04-05T08:38:05;41.30;34.89;56.11;;
77729;Laerm;68312;53.502;10.030;2023-04-05T08:40:45;39.30;34.70;50.30;;
77729;Laerm;68312;53.502;10.030;2023-04-05T08:44:00;40.57;35.04;51.01;;
77729;Laerm;68312;53.502;10.030;2023-04-05T08:46:34;43.20;35.30;56.06;;
77729;Laerm;68312;53.502;10.030;2023-04-05T08:49:06;44.27;36.13;57.45;;
77729;Laerm;68312;53.502;10.030;2023-04-05T08:51:32;44.83;35.55;59.13;;
77729;Laerm;68312;53.502;10.030;2023-04-05T08:54:01;45.63;36.75;59.86;;
77729;Laerm;68312;53.502;10.030;2023-04-05T08:56:33;43.47;37.15;52.52;;
77729;Laerm;68312;53.502;10.030;2023-04-05T08:59:11;41.47;37.04;50.32;;
77729;Laerm;68312;53.502;10.030;2023-04-05T09:01:43;45.84;37.76;60.02;;
77729;Laerm;68312;53.502;10.030;2023-04-05T09:04:28;43.68;36.51;55.71;;
77729;Laerm;68312;53.502;10.030;2023-04-05T09:06:58;42.16;36.95;61.82;;
77729;Laerm;68312;53.502;10.030;2023-04-05T09:09:31;44.05;38.23;59.01;;
77729;Laerm;68312;53.502;10.030;2023-04-05T09:11:59;44.51;35.55;56.89;;
77729;Laerm;68312;53.502;10.030;2023-04-05T09:14:27;43.43;37.34;54.93;;
77729;Laerm;68312;53.502;10.030;2023-04-05T09:16:56;42.44;36.63;53.50;;
77729;Laerm;68312;53.502;10.030;2023-04-05T09:19:22;48.11;37.31;62.75;;
77729;Laerm;68312;53.502;10.030;2023-04-05T09:22:06;53.25;37.11;73.72;;
77729;Laerm;68312;53.502;10.030;2023-04-05T09:24:40;45.45;37.18;59.18;;
77729;Laerm;68312;53.502;10.030;2023-04-05T09:27:16;43.31;36.60;57.75;;
77729;Laerm;68312;53.502;10.030;2023-04-05T09:29:45;46.87;36.31;63.03;;
77729;Laerm;68312;53.502;10.030;2023-04-05T09:32:14;51.17;36.35;77.17;;
77729;Laerm;68312;53.502;10.030;2023-04-05T09:34:42;41.50;36.53;54.76;;
77729;Laerm;68312;53.502;10.030;2023-04-05T09:37:16;43.60;36.08;57.73;;
77729;Laerm;68312;53.502;10.030;2023-04-05T09:39:46;40.59;36.04;54.29;;
77729;Laerm;68312;53.502;10.030;2023-04-05T09:42:17;42.55;35.98;63.09;;
77729;Laerm;68312;53.502;10.030;2023-04-05T09:44:58;47.04;36.68;61.82;;
77729;Laerm;68312;53.502;10.030;2023-04-05T09:47:31;56.40;34.67;78.23;;
77729;Laerm;68312;53.502;10.030;2023-04-05T09:52:38;38.29;35.34;45.71;;
77729;Laerm;68312;53.502;10.030;2023-04-05T09:55:06;54.75;35.79;74.07;;
77729;Laerm;68312;53.502;10.030;2023-04-05T09:57:37;50.43;37.34;69.01;;
77729;Laerm;68312;53.502;10.030;2023-04-05T10:00:16;41.68;37.52;50.62;;
77729;Laerm;68312;53.502;10.030;2023-04-05T10:02:42;41.46;38.38;49.30;;
77729;Laerm;68312;53.502;10.030;2023-04-05T10:05:10;44.37;38.20;58.11;;
77729;Laerm;68312;53.502;10.030;2023-04-05T10:07:39;53.50;36.86;68.57;;
77729;Laerm;68312;53.502;10.030;2023-04-05T10:10:07;49.98;37.40;68.66;;
77729;Laerm;68312;53.502;10.030;2023-04-05T10:12:38;40.61;37.12;47.60;;
77729;Laerm;68312;53.502;10.030;2023-04-05T10:15:10;42.76;37.17;55.22;;
77729;Laerm;68312;53.502;10.030;2023-04-05T10:18:09;41.77;37.67;52.69;;
77729;Laerm;68312;53.502;10.030;2023-04-05T10:20:48;41.07;37.73;46.56;;
77729;Laerm;68312;53.502;10.030;2023-04-05T10:23:30;42.42;37.50;56.35;;
77729;Laerm;68312;53.502;10.030;2023-04-05T10:26:36;40.74;36.86;50.71;;
77729;Laerm;68312;53.502;10.030;2023-04-05T10:29:16;41.59;37.13;56.76;;
77729;Laerm;68312;53.502;10.030;2023-04-05T10:32:03;42.50;37.69;59.20;;
77729;Laerm;68312;53.502;10.030;2023-04-05T10:34:49;45.55;37.53;67.55;;
77729;Laerm;68312;53.502;10.030;2023-04-05T10:37:40;50.48;37.86;70.30;;
77729;Laerm;68312;53.502;10.030;2023-04-05T10:40:11;45.76;36.71;74.75;;
77729;Laerm;68312;53.502;10.030;2023-04-05T10:42:42;41.49;36.77;55.83;;
77729;Laerm;68312;53.502;10.030;2023-04-05T10:45:17;43.88;37.19;59.41;;
77729;Laerm;68312;53.502;10.030;2023-04-05T10:48:00;40.64;36.63;52.23;;
77729;Laerm;68312;53.502;10.030;2023-04-05T10:50:30;41.64;36.72;54.87;;
77729;Laerm;68312;53.502;10.030;2023-04-05T10:52:59;43.08;37.52;55.99;;
77729;Laerm;68312;53.502;10.030;2023-04-05T10:55:25;43.03;36.43;54.63;;
77729;Laerm;68312;53.502;10.030;2023-04-05T10:57:54;41.27;36.27;53.77;;
77729;Laerm;68312;53.502;10.030;2023-04-05T11:00:22;45.35;36.82;65.42;;
77729;Laerm;68312;53.502;10.030;2023-04-05T11:02:53;49.74;36.63;65.06;;
77729;Laerm;68312;53.502;10.030;2023-04-05T11:05:33;51.59;35.83;69.21;;
77729;Laerm;68312;53.502;10.030;2023-04-05T11:08:05;42.48;35.69;57.25;;
77729;Laerm;68312;53.502;10.030;2023-04-05T11:10:35;43.25;37.04;54.74;;
77729;Laerm;68312;53.502;10.030;2023-04-05T11:13:04;45.67;35.36;59.22;;
77729;Laerm;68312;53.502;10.030;2023-04-05T11:15:32;42.17;36.30;51.75;;
77729;Laerm;68312;53.502;10.030;2023-04-05T11:18:20;39.38;35.51;49.43;;
77729;Laerm;68312;53.502;10.030;2023-04-05T11:21:05;43.34;36.56;56.26;;
77729;Laerm;68312;53.502;10.030;2023-04-05T11:23:31;41.17;35.02;57.96;;
77729;Laerm;68312;53.502;10.030;2023-04-05T11:26:05;41.99;36.18;55.01;;
77729;Laerm;68312;53.502;10.030;2023-04-05T11:28:38;41.94;36.39;51.89;;
77729;Laerm;68312;53.502;10.030;2023-04-05T11:31:16;42.47;36.56;59.64;;
77729;Laerm;68312;53.502;10.030;2023-04-05T11:36:09;43.35;35.38;59.19;;
77729;Laerm;68312;53.502;10.030;2023-04-05T11:38:35;39.28;34.56;49.91;;
77729;Laerm;68312;53.502;10.030;2023-04-05T11:41:15;43.51;34.67;56.28;;
77729;Laerm;68312;53.502;10.030;2023-04-05T11:43:46;38.94;35.86;45.23;;
77729;Laerm;68312;53.502;10.030;2023-04-05T11:46:13;40.55;36.43;54.09;;
77729;Laerm;68312;53.502;10.030;2023-04-05T11:48:41;43.39;37.17;58.46;;
77729;Laerm;68312;53.502;10.030;2023-04-05T11:51:09;44.25;36.51;57.95;;
77729;Laerm;68312;53.502;10.030;2023-04-05T11:53:36;39.66;36.56;45.41;;
77729;Laerm;68312;53.502;10.030;2023-04-05T11:56:09;40.08;35.63;60.15;;
77729;Laerm;68312;53.502;10.030;2023-04-05T11:58:37;39.07;35.98;47.83;;
77729;Laerm;68312;53.502;10.030;2023-04-05T12:01:06;41.93;35.42;56.39;;
77729;Laerm;68312;53.502;10.030;2023-04-05T12:03:34;53.33;37.68;76.56;;
77729;Laerm;68312;53.502;10.030;2023-04-05T12:06:03;42.56;35.79;51.74;;
77729;Laerm;68312;53.502;10.030;2023-04-05T12:08:45;41.86;34.98;60.62;;
77729;Laerm;68312;53.502;10.030;2023-04-05T12:11:30;38.02;34.18;51.44;;
77729;Laerm;68312;53.502;10.030;2023-04-05T12:14:00;56.01;35.33;73.98;;
77729;Laerm;68312;53.502;10.030;2023-04-05T12:16:27;49.07;36.00;65.80;;
77729;Laerm;68312;53.502;10.030;2023-04-05T12:18:56;39.64;34.51;50.69;;
77729;Laerm;68312;53.502;10.030;2023-04-05T12:21:23;40.37;34.98;57.20;;
77729;Laerm;68312;53.502;10.030;2023-04-05T12:23:50;41.12;34.67;54.83;;
77729;Laerm;68312;53.502;10.030;2023-04-05T12:26:16;40.83;34.93;57.60;;
77729;Laerm;68312;53.502;10.030;2023-04-05T12:28:58;54.47;35.41;72.57;;
77729;Laerm;68312;53.502;10.030;2023-04-05T12:31:44;44.33;36.96;60.96;;
77729;Laerm;68312;53.502;10.030;2023-04-05T12:34:13;43.53;35.11;70.17;;
77729;Laerm;68312;53.502;10.030;2023-04-05T12:36:44;48.14;35.30;70.91;;
77729;Laerm;68312;53.502;10.030;2023-04-05T12:39:10;41.93;34.47;62.31;;
77729;Laerm;68312;53.502;10.030;2023-04-05T12:41:36;43.02;34.97;59.47;;
77729;Laerm;68312;53.502;10.030;2023-04-05T12:44:13;74.06;36.05;100.04;;
77729;Laerm;68312;53.502;10.030;2023-04-05T12:46:43;68.02;35.90;96.76;;
77729;Laerm;68312;53.502;10.030;2023-04-05T12:49:14;78.24;36.80;106.36;;
77729;Laerm;68312;53.502;10.030;2023-04-05T12:51:45;41.57;36.21;58.09;;
77729;Laerm;68312;53.502;10.030;2023-04-05T12:54:21;40.79;35.08;51.62;;
77729;Laerm;68312;53.502;10.030;2023-04-05T12:56:52;40.42;35.35;54.27;;
77729;Laerm;68312;53.502;10.030;2023-04-05T12:59:20;41.40;33.85;58.80;;
77729;Laerm;68312;53.502;10.030;2023-04-05T13:01:45;42.48;34.07;55.42;;
77729;Laerm;68312;53.502;10.030;2023-04-05T13:04:11;40.20;34.03;51.76;;
77729;Laerm;68312;53.502;10.030;2023-04-05T13:06:36;38.91;33.94;53.17;;
77729;Laerm;68312;53.502;10.030;2023-04-05T13:09:02;40.19;34.58;53.62;;
77729;Laerm;68312;53.502;10.030;2023-04-05T13:11:28;45.21;34.68;57.10;;
77729;Laerm;68312;53.502;10.030;2023-04-05T13:13:54;50.76;35.37;67.57;;
77729;Laerm;68312;53.502;10.030;2023-04-05T13:16:20;42.82;37.20;64.40;;
77729;Laerm;68312;53.502;10.030;2023-04-05T13:18:45;47.23;35.98;65.58;;
77729;Laerm;68312;53.502;10.030;2023-04-05T13:21:11;42.97;35.57;56.77;;
77729;Laerm;68312;53.502;10.030;2023-04-05T13:23:38;39.79;35.01;52.98;;
77729;Laerm;68312;53.502;10.030;2023-04-05T13:26:06;41.23;34.30;54.11;;
77729;Laerm;68312;53.502;10.030;2023-04-05T13:28:32;52.81;34.51;65.63;;
77729;Laerm;68312;53.502;10.030;2023-04-05T13:30:58;50.64;34.62;66.68;;
77729;Laerm;68312;53.502;10.030;2023-04-05T13:33:24;42.38;33.66;58.49;;
77729;Laerm;68312;53.502;10.030;2023-04-05T13:35:50;40.96;33.29;52.27;;
77729;Laerm;68312;53.502;10.030;2023-04-05T13:38:16;42.08;33.77;57.55;;
77729;Laerm;68312;53.502;10.030;2023-04-05T13:40:41;40.52;34.21;54.35;;
77729;Laerm;68312;53.502;10.030;2023-04-05T13:43:07;38.75;34.10;48.24;;
77729;Laerm;68312;53.502;10.030;2023-04-05T13:45:33;42.74;35.61;56.02;;
77729;Laerm;68312;53.502;10.030;2023-04-05T13:47:59;41.43;34.98;56.42;;
77729;Laerm;68312;53.502;10.030;2023-04-05T13:50:26;45.19;35.42;63.01;;
77729;Laerm;68312;53.502;10.030;2023-04-05T13:52:52;41.85;34.85;51.92;;